createdAt,value
2023-02-18T00:01:16.433Z,100.00
2023-02-18T00:03:17.944Z,100.00
2023-02-18T00:05:19.598Z,100.00
2023-02-18T00:07:21.667Z,100.00
2023-02-18T00:09:23.424Z,100.00
2023-02-18T00:11:24.966Z,100.00
2023-02-18T00:13:26.488Z,100.00
2023-02-18T00:15:28.597Z,100.00
2023-02-18T00:17:30.461Z,100.00
2023-02-18T00:19:31.971Z,100.00
2023-02-18T00:21:35.264Z,100.00
2023-02-18T00:23:37.323Z,100.00
2023-02-18T00:25:38.858Z,100.00
2023-02-18T00:27:40.355Z,100.00
2023-02-18T00:29:41.936Z,100.00
2023-02-18T00:31:43.881Z,100.00
2023-02-18T00:33:45.867Z,100.00
2023-02-18T00:35:47.474Z,100.00
2023-02-18T00:37:53.767Z,100.00
2023-02-18T00:39:55.262Z,100.00
2023-02-18T00:41:57.061Z,100.00
2023-02-18T00:43:58.632Z,100.00
2023-02-18T00:46:01.081Z,100.00
2023-02-18T00:48:02.639Z,100.00
2023-02-18T00:50:05.030Z,100.00
2023-02-18T00:52:06.518Z,100.00
2023-02-18T00:54:08.460Z,100.00
2023-02-18T00:56:10.366Z,100.00
2023-02-18T00:58:12.581Z,100.00
2023-02-18T01:00:14.744Z,100.00
2023-02-18T01:02:16.995Z,100.00
2023-02-18T01:04:19.073Z,100.00
2023-02-18T01:06:22.051Z,100.00
2023-02-18T01:08:23.750Z,100.00
2023-02-18T01:10:25.284Z,100.00
2023-02-18T01:12:26.837Z,100.00
2023-02-18T01:14:29.405Z,100.00
2023-02-18T01:16:31.030Z,100.00
2023-02-18T01:18:33.660Z,100.00
2023-02-18T01:20:36.191Z,100.00
2023-02-18T01:22:38.348Z,100.00
2023-02-18T01:24:42.111Z,100.00
2023-02-18T01:26:43.595Z,100.00
2023-02-18T01:28:45.474Z,100.00
2023-02-18T01:30:47.296Z,100.00
2023-02-18T01:32:51.652Z,100.00
2023-02-18T01:34:53.213Z,100.00
2023-02-18T01:36:56.026Z,100.00
2023-02-18T01:38:57.617Z,100.00
2023-02-18T01:40:59.556Z,100.00
2023-02-18T01:43:03.532Z,100.00
2023-02-18T01:45:37.154Z,100.00
2023-02-18T01:47:39.506Z,100.00
2023-02-18T01:49:42.683Z,100.00
2023-02-18T01:51:52.813Z,100.00
2023-02-18T01:54:07.231Z,100.00
2023-02-18T01:56:10.352Z,100.00
2023-02-18T01:58:13.206Z,100.00
2023-02-18T02:00:18.007Z,100.00
2023-02-18T02:02:24.209Z,100.00
2023-02-18T02:04:26.543Z,100.00
2023-02-18T02:06:28.170Z,100.00
2023-02-18T02:08:30.714Z,100.00
2023-02-18T02:10:41.472Z,100.00
2023-02-18T02:13:01.918Z,100.00
2023-02-18T02:15:31.630Z,100.00
2023-02-18T02:17:36.284Z,100.00
2023-02-18T02:20:16.709Z,100.00
2023-02-18T02:23:05.008Z,100.00
2023-02-18T02:25:11.815Z,100.00
2023-02-18T02:27:29.036Z,100.00
2023-02-18T02:29:56.923Z,100.00
2023-02-18T02:32:18.470Z,100.00
2023-02-18T02:34:45.112Z,100.00
2023-02-18T02:36:56.398Z,100.00
2023-02-18T02:39:14.060Z,100.00
2023-02-18T02:41:33.789Z,100.00
2023-02-18T02:43:46.637Z,100.00
2023-02-18T02:46:07.174Z,100.00
2023-02-18T02:48:27.940Z,100.00
2023-02-18T02:50:42.787Z,100.00
2023-02-18T02:52:50.220Z,100.00
2023-02-18T02:54:54.533Z,100.00
2023-02-18T02:57:16.202Z,100.00
2023-02-18T02:59:29.864Z,100.00
2023-02-18T03:01:49.007Z,100.00
2023-02-18T03:04:03.080Z,100.00
2023-02-18T03:06:14.504Z,100.00
2023-02-18T03:08:29.063Z,100.00
2023-02-18T03:10:37.842Z,100.00
2023-02-18T03:12:50.167Z,100.00
2023-02-18T03:15:09.380Z,100.00
2023-02-18T03:17:19.627Z,100.00
2023-02-18T03:19:42.621Z,100.00
2023-02-18T03:21:51.993Z,100.00
2023-02-18T03:24:09.009Z,100.00
2023-02-18T03:26:13.744Z,100.00
2023-02-18T03:28:19.876Z,100.00
2023-02-18T03:30:25.695Z,100.00
2023-02-18T03:32:30.421Z,100.00
2023-02-18T03:34:38.096Z,100.00
2023-02-18T03:36:40.233Z,100.00
2023-02-18T03:38:56.193Z,100.00
2023-02-18T03:40:57.954Z,100.00
2023-02-18T03:42:59.903Z,100.00
2023-02-18T03:45:01.426Z,100.00
2023-02-18T03:47:03.922Z,100.00
2023-02-18T03:49:06.159Z,100.00
2023-02-18T03:51:08.051Z,100.00
2023-02-18T03:53:09.617Z,100.00
2023-02-18T03:55:12.196Z,100.00
2023-02-18T03:57:13.721Z,100.00
2023-02-18T03:59:15.513Z,100.00
2023-02-18T04:01:17.420Z,100.00
2023-02-18T04:03:19.126Z,100.00
2023-02-18T04:05:20.759Z,100.00
2023-02-18T04:07:22.366Z,100.00
2023-02-18T04:09:24.161Z,100.00
2023-02-18T04:11:26.008Z,100.00
2023-02-18T04:13:28.417Z,100.00
2023-02-18T04:15:30.337Z,100.00
2023-02-18T04:17:33.716Z,100.00
2023-02-18T04:19:35.826Z,100.00
2023-02-18T04:21:37.446Z,100.00
2023-02-18T04:23:39.053Z,100.00
2023-02-18T04:25:41.317Z,100.00
2023-02-18T04:27:42.926Z,100.00
2023-02-18T04:29:44.780Z,100.00
2023-02-18T04:31:46.892Z,100.00
2023-02-18T04:33:48.508Z,100.00
2023-02-18T04:35:50.046Z,100.00
2023-02-18T04:37:51.898Z,100.00
2023-02-18T04:39:53.424Z,100.00
2023-02-18T04:41:55.029Z,100.00
2023-02-18T04:43:56.635Z,100.00
2023-02-18T04:45:58.137Z,100.00
2023-02-18T04:48:00.688Z,100.00
2023-02-18T04:50:02.544Z,100.00
2023-02-18T04:52:04.611Z,100.00
2023-02-18T04:54:06.346Z,100.00
2023-02-18T04:56:08.158Z,100.00
2023-02-18T04:58:10.759Z,100.00
2023-02-18T05:00:17.393Z,100.00
2023-02-18T05:02:19.139Z,100.00
2023-02-18T05:04:20.889Z,100.00
2023-02-18T05:06:22.703Z,100.00
2023-02-18T05:08:24.396Z,100.00
2023-02-18T05:10:26.150Z,100.00
2023-02-18T05:12:28.709Z,100.00
2023-02-18T05:14:31.475Z,100.00
2023-02-18T05:16:33.361Z,100.00
2023-02-18T05:18:34.915Z,100.00
2023-02-18T05:20:36.484Z,100.00
2023-02-18T05:22:38.275Z,100.00
2023-02-18T05:24:39.926Z,100.00
2023-02-18T05:26:41.412Z,100.00
2023-02-18T05:28:42.877Z,100.00
2023-02-18T05:30:44.448Z,100.00
2023-02-18T05:32:46.260Z,100.00
2023-02-18T05:34:48.104Z,100.00
2023-02-18T05:36:49.705Z,100.00
2023-02-18T05:38:51.841Z,100.00
2023-02-18T05:40:53.358Z,100.00
2023-02-18T05:42:54.885Z,100.00
2023-02-18T05:44:56.345Z,100.00
2023-02-18T05:47:03.224Z,100.00
2023-02-18T05:49:05.005Z,100.00
2023-02-18T05:51:07.228Z,100.00
2023-02-18T05:53:09.267Z,100.00
2023-02-18T05:55:10.914Z,100.00
2023-02-18T05:57:14.792Z,100.00
2023-02-18T05:59:16.596Z,100.00
2023-02-18T06:01:18.309Z,100.00
2023-02-18T06:03:19.834Z,100.00
2023-02-18T06:05:21.415Z,100.00
2023-02-18T06:07:22.962Z,100.00
2023-02-18T06:09:24.631Z,100.00
2023-02-18T06:11:26.204Z,100.00
2023-02-18T06:13:27.805Z,100.00
2023-02-18T06:15:29.296Z,100.00
2023-02-18T06:17:30.801Z,100.00
2023-02-18T06:19:32.395Z,100.00
2023-02-18T06:21:33.974Z,100.00
2023-02-18T06:23:36.083Z,100.00
2023-02-18T06:25:37.924Z,100.00
2023-02-18T06:27:39.400Z,100.00
2023-02-18T06:29:41.008Z,100.00
2023-02-18T06:31:42.583Z,100.00
2023-02-18T06:33:44.187Z,100.00
2023-02-18T06:36:00.803Z,100.00
2023-02-18T06:38:02.566Z,100.00
2023-02-18T06:40:05.073Z,100.00
2023-02-18T06:42:06.755Z,100.00
2023-02-18T06:44:08.467Z,100.00
2023-02-18T06:46:11.182Z,100.00
2023-02-18T06:48:13.422Z,100.00
2023-02-18T06:50:15.774Z,100.00
2023-02-18T06:52:17.346Z,100.00
2023-02-18T06:54:19.124Z,100.00
2023-02-18T06:56:21.054Z,100.00
2023-02-18T06:58:23.204Z,100.00
2023-02-18T07:00:24.919Z,100.00
2023-02-18T07:02:26.834Z,100.00
2023-02-18T07:04:28.294Z,99.94
2023-02-18T07:06:29.807Z,100.00
2023-02-18T07:08:36.020Z,99.71
2023-02-18T07:10:37.628Z,99.55
2023-02-18T07:12:39.218Z,99.06
2023-02-18T07:14:41.028Z,98.17
2023-02-18T07:16:42.576Z,97.85
2023-02-18T07:18:44.136Z,98.03
2023-02-18T07:20:45.726Z,97.47
2023-02-18T07:22:48.043Z,96.91
2023-02-18T07:24:53.738Z,97.11
2023-02-18T07:26:55.353Z,96.60
2023-02-18T07:28:57.377Z,95.26
2023-02-18T07:30:59.159Z,94.36
2023-02-18T07:33:02.998Z,95.28
2023-02-18T07:35:06.306Z,94.70
2023-02-18T07:37:09.569Z,94.09
2023-02-18T07:39:11.150Z,93.27
2023-02-18T07:41:21.303Z,93.76
2023-02-18T07:43:22.947Z,93.84
2023-02-18T07:45:24.541Z,93.20
2023-02-18T07:47:26.125Z,93.14
2023-02-18T07:49:27.978Z,92.63
2023-02-18T07:51:29.509Z,91.77
2023-02-18T07:53:31.023Z,92.40
2023-02-18T07:55:51.826Z,91.59
2023-02-18T07:58:00.853Z,91.29
2023-02-18T08:00:03.865Z,90.66
2023-02-18T08:02:23.384Z,90.59
2023-02-18T08:04:24.910Z,91.46
2023-02-18T08:06:33.416Z,90.51
2023-02-18T08:08:37.083Z,89.85
2023-02-18T08:10:38.842Z,90.20
2023-02-18T08:12:40.403Z,88.79
2023-02-18T08:14:42.327Z,88.14
2023-02-18T08:16:43.945Z,89.26
2023-02-18T08:18:47.711Z,87.31
2023-02-18T08:20:52.054Z,83.48
2023-02-18T08:22:53.943Z,84.13
2023-02-18T08:24:56.561Z,84.34
2023-02-18T08:27:01.241Z,83.59
2023-02-18T08:29:03.432Z,82.63
2023-02-18T08:31:05.284Z,84.46
2023-02-18T08:33:07.103Z,83.03
2023-02-18T08:35:11.370Z,83.10
2023-02-18T08:37:13.081Z,83.57
2023-02-18T08:39:14.686Z,83.75
2023-02-18T08:41:18.743Z,84.51
2023-02-18T08:43:20.370Z,84.44
2023-02-18T08:45:21.895Z,84.41
2023-02-18T08:48:17.599Z,84.37
2023-02-18T08:49:45.438Z,84.58
2023-02-18T08:51:47.988Z,84.35
2023-02-18T08:53:50.291Z,84.83
2023-02-18T08:55:51.897Z,83.96
2023-02-18T08:57:53.555Z,84.56
2023-02-18T08:59:55.120Z,84.56
2023-02-18T09:01:56.768Z,85.05
2023-02-18T09:03:58.308Z,86.00
2023-02-18T09:06:00.749Z,85.44
2023-02-18T09:08:02.248Z,84.62
2023-02-18T09:10:05.145Z,84.13
2023-02-18T09:12:06.871Z,84.06
2023-02-18T09:14:08.868Z,85.00
2023-02-18T09:16:18.509Z,83.39
2023-02-18T09:18:20.339Z,84.15
2023-02-18T09:20:22.946Z,83.95
2023-02-18T09:22:24.756Z,83.89
2023-02-18T09:24:26.585Z,82.78
2023-02-18T09:26:28.370Z,82.74
2023-02-18T09:28:30.165Z,83.69
2023-02-18T09:30:31.714Z,83.09
2023-02-18T09:32:35.033Z,82.65
2023-02-18T09:34:37.220Z,81.17
2023-02-18T09:36:39.435Z,81.76
2023-02-18T09:38:40.925Z,79.57
2023-02-18T09:40:50.132Z,79.53
2023-02-18T09:42:52.323Z,79.50
2023-02-18T09:44:57.748Z,79.10
2023-02-18T09:47:03.400Z,77.63
2023-02-18T09:49:12.929Z,77.34
2023-02-18T09:51:16.188Z,78.38
2023-02-18T09:53:18.805Z,77.62
2023-02-18T09:55:22.804Z,77.92
2023-02-18T09:57:39.201Z,76.32
2023-02-18T09:59:42.470Z,77.32
2023-02-18T10:01:47.501Z,78.56
2023-02-18T10:03:49.115Z,78.18
2023-02-18T10:06:00.928Z,78.93
2023-02-18T10:08:17.312Z,77.47
2023-02-18T10:10:41.779Z,77.42
2023-02-18T10:12:43.452Z,76.52
2023-02-18T10:14:49.915Z,76.77
2023-02-18T10:16:52.974Z,77.08
2023-02-18T10:18:58.007Z,76.32
2023-02-18T10:21:15.183Z,76.65
2023-02-18T10:23:20.212Z,77.00
2023-02-18T10:25:24.258Z,76.66
2023-02-18T10:27:31.291Z,76.26
2023-02-18T10:29:34.242Z,76.26
2023-02-18T10:31:37.023Z,76.67
2023-02-18T10:34:13.574Z,76.70
2023-02-18T10:36:25.918Z,75.39
2023-02-18T10:38:46.366Z,76.44
2023-02-18T10:41:01.023Z,76.40
2023-02-18T10:43:31.302Z,76.14
2023-02-18T10:45:50.180Z,76.34
2023-02-18T10:47:51.581Z,76.77
2023-02-18T10:50:02.770Z,76.59
2023-02-18T10:52:06.701Z,75.60
2023-02-18T10:54:08.495Z,75.94
2023-02-18T10:56:32.830Z,75.46
2023-02-18T10:58:37.497Z,76.34
2023-02-18T11:00:40.368Z,76.13
2023-02-18T11:02:43.569Z,75.46
2023-02-18T11:04:46.652Z,76.38
2023-02-18T11:06:51.479Z,75.67
2023-02-18T11:08:56.348Z,76.74
2023-02-18T11:10:58.439Z,76.24
2023-02-18T11:13:05.736Z,76.17
2023-02-18T11:15:17.534Z,75.93
2023-02-18T11:17:27.873Z,75.56
2023-02-18T11:19:35.527Z,75.40
2023-02-18T11:21:38.572Z,76.32
2023-02-18T11:23:52.515Z,74.65
2023-02-18T11:26:07.478Z,75.23
2023-02-18T11:28:17.927Z,76.10
2023-02-18T11:30:30.946Z,74.88
2023-02-18T11:32:35.909Z,75.44
2023-02-18T11:34:42.931Z,75.94
2023-02-18T11:36:45.080Z,76.07
2023-02-18T11:38:49.659Z,75.63
2023-02-18T11:41:05.606Z,75.11
2023-02-18T11:43:16.269Z,75.47
2023-02-18T11:45:30.504Z,76.33
2023-02-18T11:47:38.229Z,75.88
2023-02-18T11:49:42.230Z,75.82
2023-02-18T11:51:43.816Z,76.47
2023-02-18T11:54:00.131Z,75.72
2023-02-18T11:56:05.379Z,76.29
2023-02-18T11:58:11.869Z,75.71
2023-02-18T12:00:38.949Z,75.96
2023-02-18T12:02:41.800Z,75.80
2023-02-18T12:04:50.727Z,75.57
2023-02-18T12:07:20.891Z,75.86
2023-02-18T12:09:29.308Z,76.34
2023-02-18T12:11:36.547Z,75.78
2023-02-18T12:13:50.937Z,77.02
2023-02-18T12:16:21.824Z,76.47
2023-02-18T12:18:42.885Z,76.98
2023-02-18T12:21:32.472Z,76.80
2023-02-18T12:23:58.692Z,76.63
2023-02-18T12:26:29.114Z,76.52
2023-02-18T12:28:41.377Z,76.69
2023-02-18T12:31:09.641Z,76.41
2023-02-18T12:33:37.240Z,76.34
2023-02-18T12:36:05.244Z,76.71
2023-02-18T12:38:26.916Z,78.01
2023-02-18T12:40:45.127Z,76.29
2023-02-18T12:43:11.497Z,77.15
2023-02-18T12:45:35.720Z,77.00
2023-02-18T12:48:07.139Z,76.97
2023-02-18T12:50:12.829Z,77.06
2023-02-18T12:52:32.566Z,76.90
2023-02-18T12:54:47.749Z,78.16
2023-02-18T12:57:20.253Z,75.76
2023-02-18T12:59:59.308Z,74.18
2023-02-18T13:02:22.881Z,75.76
2023-02-18T13:04:52.665Z,77.54
2023-02-18T13:07:17.086Z,76.54
2023-02-18T13:09:53.361Z,78.37
2023-02-18T13:12:16.217Z,78.46
2023-02-18T13:14:29.511Z,78.09
2023-02-18T13:16:33.021Z,78.44
2023-02-18T13:18:47.088Z,79.27
2023-02-18T13:20:56.509Z,80.24
2023-02-18T13:22:58.190Z,81.14
2023-02-18T13:25:00.001Z,80.26
2023-02-18T13:27:21.369Z,82.40
2023-02-18T13:29:35.034Z,81.08
2023-02-18T13:32:03.042Z,80.06
2023-02-18T13:34:15.637Z,81.65
2023-02-18T13:36:47.010Z,80.45
2023-02-18T13:39:04.099Z,80.92
2023-02-18T13:41:06.079Z,81.43
2023-02-18T13:43:33.337Z,81.35
2023-02-18T13:45:35.494Z,80.86
2023-02-18T13:47:43.395Z,81.47
2023-02-18T13:49:44.968Z,81.61
2023-02-18T13:51:49.908Z,81.28
2023-02-18T13:53:52.803Z,81.47
2023-02-18T13:56:04.181Z,81.84
2023-02-18T13:58:14.525Z,82.55
2023-02-18T14:00:24.624Z,83.13
2023-02-18T14:02:27.060Z,82.56
2023-02-18T14:04:41.697Z,82.78
2023-02-18T14:07:22.260Z,82.79
2023-02-18T14:09:23.896Z,83.22
2023-02-18T14:11:33.785Z,84.50
2023-02-18T14:14:13.896Z,85.34
2023-02-18T14:16:15.824Z,85.44
2023-02-18T14:18:23.976Z,85.52
2023-02-18T14:20:32.123Z,85.15
2023-02-18T14:22:44.921Z,84.71
2023-02-18T14:24:55.895Z,84.68
2023-02-18T14:27:15.063Z,84.85
2023-02-18T14:29:27.326Z,85.83
2023-02-18T14:31:36.035Z,85.81
2023-02-18T14:33:41.225Z,86.21
2023-02-18T14:36:09.356Z,85.70
2023-02-18T14:38:27.837Z,85.93
2023-02-18T14:40:39.016Z,85.75
2023-02-18T14:42:59.948Z,86.63
2023-02-18T14:45:31.389Z,86.61
2023-02-18T14:48:02.196Z,86.15
2023-02-18T14:50:10.216Z,86.05
2023-02-18T14:52:38.044Z,86.27
2023-02-18T14:54:41.332Z,86.76
2023-02-18T14:57:05.343Z,87.38
2023-02-18T14:59:07.803Z,86.11
2023-02-18T15:01:29.549Z,87.04
2023-02-18T15:03:31.266Z,87.17
2023-02-18T15:05:37.952Z,88.11
2023-02-18T15:07:39.472Z,88.12
2023-02-18T15:09:50.400Z,88.38
2023-02-18T15:12:04.394Z,89.18
2023-02-18T15:14:21.627Z,88.64
2023-02-18T15:16:31.009Z,89.08
2023-02-18T15:18:44.692Z,89.38
2023-02-18T15:20:46.341Z,89.24
2023-02-18T15:22:48.447Z,88.86
2023-02-18T15:24:52.352Z,89.10
2023-02-18T15:26:56.968Z,89.29
2023-02-18T15:29:01.894Z,89.07
2023-02-18T15:31:04.761Z,89.28
2023-02-18T15:33:12.921Z,89.38
2023-02-18T15:35:19.058Z,89.42
2023-02-18T15:37:20.943Z,89.14
2023-02-18T15:39:23.949Z,89.23
2023-02-18T15:41:25.781Z,89.34
2023-02-18T15:43:27.379Z,89.33
2023-02-18T15:45:34.515Z,89.25
2023-02-18T15:47:44.234Z,89.34
2023-02-18T15:49:49.688Z,88.71
2023-02-18T15:51:58.474Z,88.66
2023-02-18T15:54:02.847Z,88.96
2023-02-18T15:56:11.150Z,88.71
2023-02-18T15:58:18.355Z,88.81
2023-02-18T16:00:29.020Z,88.39
2023-02-18T16:02:33.303Z,88.86
2023-02-18T16:04:39.919Z,88.74
2023-02-18T16:06:49.708Z,88.39
2023-02-18T16:09:02.873Z,87.61
2023-02-18T16:11:13.480Z,87.89
2023-02-18T16:13:17.352Z,87.86
2023-02-18T16:15:28.883Z,88.61
2023-02-18T16:17:30.696Z,88.97
2023-02-18T16:19:32.899Z,89.38
2023-02-18T16:21:40.486Z,89.04
2023-02-18T16:24:02.652Z,89.89
2023-02-18T16:26:26.798Z,89.93
2023-02-18T16:28:33.053Z,90.39
2023-02-18T16:30:35.321Z,90.23
2023-02-18T16:32:36.908Z,90.71
2023-02-18T16:34:38.578Z,90.33
2023-02-18T16:37:00.453Z,90.95
2023-02-18T16:39:02.119Z,90.82
2023-02-18T16:41:03.836Z,90.83
2023-02-18T16:43:13.340Z,90.90
2023-02-18T16:45:15.352Z,89.94
2023-02-18T16:47:19.563Z,90.14
2023-02-18T16:49:22.713Z,89.58
2023-02-18T16:51:35.284Z,89.49
2023-02-18T16:53:36.916Z,89.34
2023-02-18T16:55:38.479Z,88.81
2023-02-18T16:57:39.988Z,88.25
2023-02-18T16:59:41.534Z,88.96
2023-02-18T17:01:45.448Z,88.56
2023-02-18T17:03:48.858Z,88.47
2023-02-18T17:05:50.624Z,87.88
2023-02-18T17:07:52.800Z,88.05
2023-02-18T17:09:54.314Z,88.38
2023-02-18T17:11:56.116Z,88.49
2023-02-18T17:14:00.670Z,88.26
2023-02-18T17:16:02.152Z,87.72
2023-02-18T17:18:04.710Z,87.96
2023-02-18T17:20:06.416Z,87.66
2023-02-18T17:22:09.895Z,88.25
2023-02-18T17:24:13.363Z,87.55
2023-02-18T17:26:24.706Z,87.38
2023-02-18T17:28:26.993Z,88.30
2023-02-18T17:30:30.627Z,88.10
2023-02-18T17:32:32.304Z,87.84
2023-02-18T17:34:36.054Z,87.03
2023-02-18T17:36:39.439Z,87.44
2023-02-18T17:38:41.198Z,87.95
2023-02-18T17:40:43.077Z,87.62
2023-02-18T17:42:45.994Z,87.91
2023-02-18T17:44:47.551Z,88.00
2023-02-18T17:46:52.284Z,88.30
2023-02-18T17:48:53.798Z,88.31
2023-02-18T17:54:30.360Z,88.42
2023-02-18T17:56:53.246Z,88.47
2023-02-18T17:59:15.559Z,88.60
2023-02-18T18:01:37.452Z,88.36
2023-02-18T18:03:59.279Z,88.00
2023-02-18T18:06:21.577Z,88.33
2023-02-18T18:08:43.941Z,88.38
2023-02-18T18:11:06.617Z,88.72
2023-02-18T18:13:32.853Z,88.29
2023-02-18T18:15:57.701Z,88.06
2023-02-18T18:18:20.430Z,88.38
2023-02-18T18:20:48.221Z,88.73
2023-02-18T18:23:16.544Z,88.46
2023-02-18T18:25:41.274Z,88.39
2023-02-18T18:28:04.332Z,88.54
2023-02-18T18:30:31.220Z,88.29
2023-02-18T18:32:54.103Z,89.86
2023-02-18T18:35:38.733Z,89.09
2023-02-18T18:37:40.222Z,89.08
2023-02-18T18:39:41.688Z,89.19
2023-02-18T18:41:43.202Z,88.80
2023-02-18T18:43:45.282Z,88.82
2023-02-18T18:45:48.389Z,88.83
2023-02-18T18:47:51.058Z,89.23
2023-02-18T18:49:52.583Z,89.40
2023-02-18T18:51:56.775Z,89.03
2023-02-18T18:53:58.506Z,89.23
2023-02-18T18:56:03.459Z,89.15
2023-02-18T18:58:05.265Z,89.52
2023-02-18T19:00:07.711Z,89.79
2023-02-18T19:02:16.262Z,89.67
2023-02-18T19:04:19.043Z,88.98
2023-02-18T19:06:21.113Z,88.92
2023-02-18T19:08:23.142Z,88.94
2023-02-18T19:10:36.741Z,89.47
2023-02-18T19:12:38.354Z,89.68
2023-02-18T19:14:39.886Z,89.54
2023-02-18T19:16:42.771Z,89.37
2023-02-18T19:18:44.750Z,89.38
2023-02-18T19:20:47.642Z,89.38
2023-02-18T19:22:50.139Z,89.90
2023-02-18T19:24:52.150Z,89.58
2023-02-18T19:26:54.136Z,90.51
2023-02-18T19:28:56.008Z,90.41
2023-02-18T19:30:58.332Z,89.82
2023-02-18T19:33:02.839Z,89.54
2023-02-18T19:35:04.818Z,89.80
2023-02-18T19:37:06.733Z,90.07
2023-02-18T19:39:08.855Z,89.44
2023-02-18T19:41:13.350Z,89.76
2023-02-18T19:43:15.486Z,89.92
2023-02-18T19:45:18.499Z,90.16
2023-02-18T19:47:20.030Z,90.07
2023-02-18T19:49:26.019Z,89.39
2023-02-18T19:51:27.806Z,90.05
2023-02-18T19:53:29.293Z,90.72
2023-02-18T19:55:30.844Z,91.54
2023-02-18T19:57:34.500Z,90.89
2023-02-18T19:59:36.380Z,91.06
2023-02-18T20:01:37.955Z,90.60
2023-02-18T20:03:39.645Z,91.14
2023-02-18T20:05:41.240Z,90.96
2023-02-18T20:07:42.969Z,90.98
2023-02-18T20:09:45.089Z,91.63
2023-02-18T20:11:47.982Z,92.85
2023-02-18T20:13:49.848Z,93.69
2023-02-18T20:15:51.968Z,93.63
2023-02-18T20:17:53.614Z,93.49
2023-02-18T20:19:55.107Z,93.03
2023-02-18T20:21:56.835Z,94.17
2023-02-18T20:23:58.351Z,94.06
2023-02-18T20:26:03.899Z,94.58
2023-02-18T20:28:05.661Z,94.04
2023-02-18T20:30:08.237Z,93.79
2023-02-18T20:32:09.893Z,93.58
2023-02-18T20:34:12.378Z,93.15
2023-02-18T20:36:15.076Z,92.53
2023-02-18T20:38:18.579Z,93.12
2023-02-18T20:40:20.373Z,93.31
2023-02-18T20:42:21.893Z,93.10
2023-02-18T20:44:25.864Z,93.94
2023-02-18T20:46:27.812Z,94.26
2023-02-18T20:48:30.540Z,94.90
2023-02-18T20:50:32.026Z,95.07
2023-02-18T20:52:34.861Z,95.68
2023-02-18T20:54:36.464Z,95.51
2023-02-18T20:56:38.545Z,96.41
2023-02-18T20:58:40.527Z,96.31
2023-02-18T21:00:42.336Z,97.15
2023-02-18T21:02:43.937Z,97.34
2023-02-18T21:04:45.628Z,96.59
2023-02-18T21:06:47.999Z,96.84
2023-02-18T21:08:51.781Z,95.91
2023-02-18T21:10:53.614Z,95.82
2023-02-18T21:12:55.145Z,95.84
2023-02-18T21:14:56.655Z,95.44
2023-02-18T21:16:58.727Z,94.89
2023-02-18T21:19:00.638Z,94.86
2023-02-18T21:21:03.952Z,94.19
2023-02-18T21:23:05.769Z,93.78
2023-02-18T21:25:07.765Z,94.63
2023-02-18T21:27:10.691Z,94.71
2023-02-18T21:29:12.988Z,95.03
2023-02-18T21:31:17.488Z,94.58
2023-02-18T21:33:19.199Z,93.62
2023-02-18T21:35:20.988Z,94.67
2023-02-18T21:37:22.751Z,95.27
2023-02-18T21:39:24.341Z,94.88
2023-02-18T21:41:27.473Z,94.16
2023-02-18T21:43:29.291Z,93.98
2023-02-18T21:45:30.870Z,94.45
2023-02-18T21:47:32.379Z,94.04
2023-02-18T21:49:34.050Z,94.29
2023-02-18T21:51:57.085Z,94.12
2023-02-18T21:53:58.768Z,94.16
2023-02-18T21:56:09.259Z,94.17
2023-02-18T21:58:10.947Z,93.59
2023-02-18T22:00:19.982Z,93.96
2023-02-18T22:02:25.307Z,93.15
2023-02-18T22:04:31.077Z,93.30
2023-02-18T22:06:33.262Z,93.37
2023-02-18T22:08:34.920Z,93.47
2023-02-18T22:10:38.752Z,92.93
2023-02-18T22:12:40.360Z,92.38
2023-02-18T22:14:43.564Z,92.56
2023-02-18T22:16:45.562Z,92.46
2023-02-18T22:18:47.141Z,92.30
2023-02-18T22:20:48.688Z,92.47
2023-02-18T22:22:50.435Z,93.17
2023-02-18T22:24:52.061Z,92.83
2023-02-18T22:26:53.785Z,92.59
2023-02-18T22:28:57.363Z,93.10
2023-02-18T22:30:59.246Z,92.86
2023-02-18T22:33:00.772Z,93.34
2023-02-18T22:35:02.362Z,92.90
2023-02-18T22:37:04.003Z,92.68
2023-02-18T22:39:06.489Z,92.56
2023-02-18T22:41:10.955Z,92.78
2023-02-18T22:43:13.001Z,92.26
2023-02-18T22:45:14.661Z,92.89
2023-02-18T22:47:16.228Z,93.10
2023-02-18T22:49:17.767Z,94.24
2023-02-18T22:51:24.926Z,93.71
2023-02-18T22:53:26.716Z,94.49
2023-02-18T22:55:28.332Z,95.03
2023-02-18T22:57:30.011Z,95.18
2023-02-18T22:59:31.500Z,95.08
2023-02-18T23:01:36.016Z,96.35
2023-02-18T23:03:37.904Z,96.17
2023-02-18T23:05:39.859Z,96.47
2023-02-18T23:07:41.517Z,97.22
2023-02-18T23:09:43.240Z,96.75
2023-02-18T23:11:45.248Z,97.35
2023-02-18T23:14:08.292Z,97.19
2023-02-18T23:16:14.680Z,96.33
2023-02-18T23:18:16.176Z,97.36
2023-02-18T23:20:37.681Z,96.89
2023-02-18T23:22:41.970Z,96.70
2023-02-18T23:24:45.909Z,95.96
2023-02-18T23:26:48.431Z,95.20
2023-02-18T23:28:51.611Z,94.90
2023-02-18T23:30:53.562Z,94.80
2023-02-18T23:32:55.074Z,95.42
2023-02-18T23:34:56.582Z,94.93
2023-02-18T23:36:58.623Z,94.70
2023-02-18T23:39:03.677Z,94.67
2023-02-18T23:41:05.967Z,94.69
2023-02-18T23:43:07.493Z,94.24
2023-02-18T23:45:09.195Z,94.85
2023-02-18T23:47:10.905Z,94.51
2023-02-18T23:49:18.175Z,94.33
2023-02-18T23:51:23.150Z,94.18
2023-02-18T23:53:26.380Z,94.04
2023-02-18T23:55:27.891Z,93.92
2023-02-18T23:57:32.644Z,93.55
2023-02-18T23:59:34.652Z,93.50
